Time;durP1;ratioP1;P1;durP2;ratioP2;P2;SDS_P1;SDS_P2;PMS_P1;PMS_P2;Temp;Humidity;BMP_temperature;BMP_pressure;BME280_temperature;BME280_humidity;BME280_pressure;Samples;Min_cycle;Max_cycle;Signal;HPM_P1;HPM_P2
2021/08/30 00:00:29;;;;;;;10.30;4.63;;;;;;;14.74;100.00;101523.53;6156227;29;20051;-78
2021/08/30 00:03:30;;;;;;;9.05;5.15;;;;;;;14.70;100.00;101525.50;6155810;29;20059;-78
2021/08/30 00:06:33;;;;;;;9.70;4.82;;;;;;;14.71;100.00;101521.03;6157183;28;20062;-78
2021/08/30 00:09:34;;;;;;;12.80;5.80;;;;;;;14.79;100.00;101523.25;6156668;29;20047;-79
2021/08/30 00:12:40;;;;;;;10.93;5.53;;;;;;;14.81;100.00;101522.25;6157561;29;20055;-78
2021/08/30 00:15:41;;;;;;;9.43;4.85;;;;;;;14.75;100.00;101513.78;6155295;29;20063;-78
2021/08/30 00:18:44;;;;;;;11.80;5.15;;;;;;;14.74;100.00;101512.09;6156483;29;20055;-79
2021/08/30 00:21:46;;;;;;;11.30;5.55;;;;;;;14.70;100.00;101517.56;6156426;29;20062;-78
2021/08/30 00:24:48;;;;;;;11.40;5.90;;;;;;;14.70;100.00;101514.06;6156080;29;20059;-79
2021/08/30 00:27:49;;;;;;;12.27;5.78;;;;;;;14.68;100.00;101510.66;6156661;29;20058;-78
2021/08/30 00:30:50;;;;;;;11.60;5.63;;;;;;;14.66;100.00;101509.88;6154777;29;20066;-79
2021/08/30 00:33:51;;;;;;;9.10;5.60;;;;;;;14.70;100.00;101519.34;6154078;28;20048;-78
2021/08/30 00:36:54;;;;;;;9.77;5.20;;;;;;;14.81;100.00;101519.59;6153525;28;20499;-79
2021/08/30 00:39:56;;;;;;;14.48;7.13;;;;;;;14.78;100.00;101521.56;6154387;29;20047;-78
2021/08/30 00:42:57;;;;;;;11.00;6.03;;;;;;;14.83;100.00;101519.50;6154488;29;20062;-78
2021/08/30 00:46:00;;;;;;;10.05;5.47;;;;;;;14.84;100.00;101522.03;6154386;28;20499;-79
2021/08/30 00:49:01;;;;;;;11.18;5.72;;;;;;;14.78;100.00;101522.41;6153559;29;20201;-79
2021/08/30 00:52:04;;;;;;;13.43;5.55;;;;;;;14.81;100.00;101519.59;6154655;29;20058;-78
2021/08/30 00:55:07;;;;;;;11.70;6.05;;;;;;;14.78;100.00;101514.47;6153813;29;20062;-79
2021/08/30 00:58:08;;;;;;;11.73;5.80;;;;;;;14.69;100.00;101515.84;6153082;29;20459;-79
2021/08/30 01:01:11;;;;;;;14.82;5.93;;;;;;;14.76;100.00;101520.78;6151883;28;20050;-78
2021/08/30 01:04:14;;;;;;;12.88;5.55;;;;;;;14.70;100.00;101520.19;6151593;29;20048;-78
2021/08/30 01:07:23;;;;;;;11.30;5.72;;;;;;;14.79;100.00;101518.81;6151992;29;20088;-78
2021/08/30 01:10:29;;;;;;;12.38;6.20;;;;;;;14.94;100.00;101530.28;6151976;28;20054;-77
2021/08/30 01:13:34;;;;;;;10.48;5.75;;;;;;;14.85;100.00;101529.06;6152129;29;20054;-79
2021/08/30 01:16:36;;;;;;;12.02;6.18;;;;;;;14.78;100.00;101534.78;6153184;29;20062;-79
2021/08/30 01:19:49;;;;;;;11.73;7.03;;;;;;;14.80;100.00;101539.03;6153751;29;20051;-78
2021/08/30 01:22:54;;;;;;;10.88;5.75;;;;;;;14.78;100.00;101534.78;6152675;29;20058;-79
2021/08/30 01:25:58;;;;;;;12.73;6.53;;;;;;;14.85;100.00;101544.06;6153008;29;20054;-78
2021/08/30 01:29:05;;;;;;;9.77;5.38;;;;;;;14.86;100.00;101543.13;6152529;29;20443;-78
2021/08/30 01:32:12;;;;;;;11.15;6.30;;;;;;;14.86;100.00;101538.69;6151754;29;20051;-78
2021/08/30 01:35:16;;;;;;;11.55;5.55;;;;;;;14.83;100.00;101535.38;6151574;29;20058;-78
2021/08/30 01:38:18;;;;;;;13.52;6.60;;;;;;;14.88;100.00;101539.44;6151950;29;20054;-79
2021/08/30 01:41:20;;;;;;;13.55;7.03;;;;;;;14.93;100.00;101544.47;6151851;29;20490;-78
2021/08/30 01:44:22;;;;;;;10.93;5.65;;;;;;;14.85;100.00;101537.00;6151858;29;20051;-79
2021/08/30 01:47:24;;;;;;;12.00;6.22;;;;;;;14.87;100.00;101544.84;6153066;29;20059;-79
2021/08/30 01:50:29;;;;;;;9.82;5.47;;;;;;;14.84;100.00;101537.06;6152629;28;20513;-79
2021/08/30 01:53:31;;;;;;;13.10;6.88;;;;;;;14.83;100.00;101538.88;6152201;29;20051;-79
2021/08/30 01:56:33;;;;;;;12.48;5.78;;;;;;;14.83;100.00;101538.88;6153066;29;20054;-79
2021/08/30 02:02:54;;;;;;;12.23;6.18;;;;;;;14.92;100.00;101535.69;6152401;29;20055;-78
2021/08/30 02:05:59;;;;;;;8.77;5.32;;;;;;;14.86;100.00;101533.41;6152579;29;20055;-79
2021/08/30 02:09:01;;;;;;;13.05;6.82;;;;;;;14.86;100.00;101536.03;6152421;29;20070;-79
2021/08/30 02:12:03;;;;;;;10.40;6.22;;;;;;;14.94;100.00;101530.28;6152137;29;20055;-79
2021/08/30 02:15:05;;;;;;;13.73;6.25;;;;;;;14.93;100.00;101541.81;6151797;29;20055;-79
2021/08/30 02:18:13;;;;;;;12.88;6.45;;;;;;;14.97;100.00;101540.69;6151863;29;20487;-79
2021/08/30 02:21:22;;;;;;;10.23;5.85;;;;;;;14.88;100.00;101533.31;6152214;29;20494;-79
2021/08/30 02:24:37;;;;;;;14.30;6.53;;;;;;;14.89;100.00;101527.06;6151543;29;20533;-78
2021/08/30 02:27:44;;;;;;;11.43;6.15;;;;;;;14.87;100.00;101529.81;6152071;29;20126;-79
2021/08/30 02:30:47;;;;;;;14.63;7.65;;;;;;;14.89;100.00;101524.41;6151941;28;20054;-79
2021/08/30 02:33:49;;;;;;;14.05;6.82;;;;;;;14.87;100.00;101531.59;6151583;29;20051;-79
2021/08/30 02:36:54;;;;;;;12.30;6.45;;;;;;;14.86;100.00;101527.25;6151755;29;20051;-79
2021/08/30 02:39:57;;;;;;;10.32;5.55;;;;;;;14.83;100.00;101522.97;6151803;29;20495;-79
2021/08/30 02:43:01;;;;;;;14.38;6.38;;;;;;;14.84;100.00;101526.47;6151563;28;20058;-79
2021/08/30 02:46:03;;;;;;;11.23;6.18;;;;;;;14.77;100.00;101522.50;6151871;28;20055;-78
2021/08/30 02:49:05;;;;;;;14.10;6.47;;;;;;;14.74;100.00;101527.97;6152158;29;20055;-79
2021/08/30 02:52:10;;;;;;;11.57;6.03;;;;;;;14.76;100.00;101524.31;6151929;29;20051;-79
2021/08/30 02:55:12;;;;;;;11.77;5.32;;;;;;;14.75;100.00;101514.63;6152013;29;20043;-79
2021/08/30 02:58:14;;;;;;;13.07;7.03;;;;;;;14.74;100.00;101522.69;6151593;28;20514;-79
2021/08/30 03:01:17;;;;;;;13.02;6.38;;;;;;;14.80;100.00;101519.66;6153789;28;20054;-79
2021/08/30 03:04:19;;;;;;;15.45;7.35;;;;;;;14.76;100.00;101523.44;6155746;29;20059;-79
2021/08/30 03:07:23;;;;;;;10.88;5.88;;;;;;;14.76;100.00;101520.78;6155688;29;20350;-79
2021/08/30 03:10:25;;;;;;;13.70;6.63;;;;;;;14.84;100.00;101515.91;6155911;29;20058;-78
2021/08/30 03:13:27;;;;;;;14.88;6.35;;;;;;;14.89;100.00;101521.75;6155432;29;20396;-78
2021/08/30 03:16:30;;;;;;;15.13;6.60;;;;;;;14.82;100.00;101523.94;6155965;29;20133;-79
2021/08/30 03:19:32;;;;;;;11.10;6.22;;;;;;;14.77;100.00;101517.22;6155717;29;20047;-79
2021/08/30 03:22:36;;;;;;;13.98;7.18;;;;;;;14.75;100.00;101519.94;6155619;29;20495;-79
2021/08/30 03:25:38;;;;;;;15.70;6.60;;;;;;;14.77;100.00;101517.22;6155775;29;20055;-79
2021/08/30 03:28:41;;;;;;;12.98;6.75;;;;;;;14.83;100.00;101524.78;6155789;29;20055;-79
2021/08/30 03:31:43;;;;;;;12.10;6.20;;;;;;;14.80;100.00;101527.59;6155554;29;20054;-79
2021/08/30 03:34:45;;;;;;;10.13;5.30;;;;;;;14.78;100.00;101517.13;6155350;29;20146;-79
2021/08/30 03:37:49;;;;;;;11.98;6.95;;;;;;;14.75;100.00;101517.28;6155275;29;20055;-79
2021/08/30 03:40:51;;;;;;;11.95;6.30;;;;;;;14.76;100.00;101521.66;6156746;28;20054;-79
2021/08/30 03:43:54;;;;;;;13.88;6.65;;;;;;;14.76;100.00;101518.13;6195003;28;20102;-79
2021/08/30 03:46:56;;;;;;;13.95;5.72;;;;;;;14.85;100.00;101525.53;6191965;28;20050;-79
2021/08/30 03:49:59;;;;;;;11.15;6.10;;;;;;;14.78;100.00;101518.91;6203109;28;20050;-79
2021/08/30 03:53:03;;;;;;;13.00;6.90;;;;;;;14.73;100.00;101520.97;6202959;28;20060;-79
2021/08/30 03:56:05;;;;;;;12.95;6.47;;;;;;;14.81;100.00;101527.53;6203103;28;20047;-79
2021/08/30 03:59:08;;;;;;;14.70;6.65;;;;;;;14.83;100.00;101530.06;6203366;28;20042;-78
2021/08/30 04:02:11;;;;;;;11.98;5.85;;;;;;;14.74;100.00;101527.97;6203081;28;20058;-79
2021/08/30 04:05:17;;;;;;;13.43;6.68;;;;;;;14.76;100.00;101534.00;6186434;28;20430;-78
2021/08/30 04:08:21;;;;;;;13.38;6.75;;;;;;;14.84;100.00;101527.31;6202694;28;20056;-78
2021/08/30 04:11:22;;;;;;;17.50;7.53;;;;;;;14.90;100.00;101529.63;6178248;28;20490;-79
2021/08/30 04:14:24;;;;;;;11.95;6.53;;;;;;;14.96;100.00;101528.41;6177635;28;20050;-79
2021/08/30 04:17:26;;;;;;;16.33;7.03;;;;;;;14.91;100.00;101533.13;6178973;28;20421;-79
2021/08/30 04:20:27;;;;;;;13.68;6.30;;;;;;;14.84;100.00;101535.28;6178509;28;20047;-78
2021/08/30 04:23:30;;;;;;;12.10;6.72;;;;;;;14.77;100.00;101528.66;6178221;28;20059;-78
2021/08/30 04:26:32;;;;;;;12.30;6.25;;;;;;;14.76;100.00;101534.00;6178213;28;20051;-78
2021/08/30 04:29:34;;;;;;;12.77;6.05;;;;;;;14.81;100.00;101537.25;6178429;28;20053;-78
2021/08/30 04:32:37;;;;;;;16.23;7.35;;;;;;;14.80;100.00;101538.19;6178214;28;20053;-78
2021/08/30 04:35:39;;;;;;;13.95;6.72;;;;;;;14.80;100.00;101539.03;6177996;28;20058;-79
2021/08/30 04:38:42;;;;;;;14.50;6.25;;;;;;;14.73;100.00;101543.00;6178669;28;20061;-79
2021/08/30 04:41:43;;;;;;;10.82;6.13;;;;;;;14.73;100.00;101547.44;6177841;28;20049;-78
2021/08/30 04:44:45;;;;;;;10.80;6.47;;;;;;;14.73;100.00;101550.09;6177589;28;20502;-79
2021/08/30 04:47:46;;;;;;;15.65;6.63;;;;;;;14.73;100.00;101556.22;6177661;28;20051;-78
2021/08/30 04:50:47;;;;;;;15.65;6.65;;;;;;;14.77;100.00;101549.81;6169917;28;20061;-79
2021/08/30 04:53:50;;;;;;;13.00;6.18;;;;;;;14.73;100.00;101550.09;6190881;28;20050;-79
2021/08/30 04:56:52;;;;;;;11.20;6.80;;;;;;;14.73;100.00;101555.38;6177164;28;20050;-78
2021/08/30 04:59:53;;;;;;;11.50;6.20;;;;;;;14.70;100.00;101548.44;6194282;28;20046;-77
2021/08/30 05:02:54;;;;;;;15.82;6.30;;;;;;;14.77;100.00;101549.81;6176848;28;20051;-78
2021/08/30 05:05:56;;;;;;;12.05;6.22;;;;;;;14.72;100.00;101554.53;6175676;28;20055;-78
2021/08/30 05:08:58;;;;;;;12.95;6.97;;;;;;;14.75;100.00;101562.25;6174230;28;20066;-79
2021/08/30 05:12:00;;;;;;;10.90;5.88;;;;;;;14.76;100.00;101566.66;6189093;28;20050;-78
2021/08/30 05:15:02;;;;;;;14.80;6.60;;;;;;;14.75;100.00;101558.78;6199416;28;20057;-77
2021/08/30 05:18:04;;;;;;;14.05;6.75;;;;;;;14.71;100.00;101563.38;6199820;28;20051;-78
2021/08/30 05:21:05;;;;;;;14.48;5.80;;;;;;;14.82;100.00;101568.06;6195422;28;20486;-77
2021/08/30 05:24:08;;;;;;;13.27;6.60;;;;;;;14.78;100.00;101563.91;6198416;28;20050;-78
2021/08/30 05:27:09;;;;;;;13.65;6.85;;;;;;;14.75;100.00;101567.56;6198650;28;20050;-79
2021/08/30 05:30:12;;;;;;;14.40;6.82;;;;;;;14.85;100.00;101570.53;6198805;28;20046;-78
2021/08/30 05:33:13;;;;;;;11.65;6.28;;;;;;;14.79;100.00;101577.03;6195899;28;20065;-82
2021/08/30 05:36:15;;;;;;;12.15;6.20;;;;;;;14.88;100.00;101573.84;6198406;28;20051;-78
2021/08/30 05:39:17;;;;;;;13.60;5.75;;;;;;;14.80;100.00;101570.78;6196613;28;20425;-78
2021/08/30 05:42:18;;;;;;;12.98;6.82;;;;;;;14.75;100.00;101580.78;6198012;28;20058;-78
2021/08/30 05:45:20;;;;;;;12.52;6.82;;;;;;;14.76;100.00;101579.00;6197784;28;20053;-79
2021/08/30 05:48:21;;;;;;;12.80;6.60;;;;;;;14.72;100.00;101583.63;6198552;28;20061;-79
2021/08/30 05:51:23;;;;;;;12.27;5.65;;;;;;;14.74;100.00;101584.38;6198709;28;20042;-79
2021/08/30 05:54:25;;;;;;;13.73;6.93;;;;;;;14.82;100.00;101573.38;6198482;28;20050;-78
2021/08/30 05:57:27;;;;;;;10.73;6.00;;;;;;;14.79;100.00;101582.31;6198791;28;20058;-78
2021/08/30 06:00:28;;;;;;;14.75;7.20;;;;;;;14.75;100.00;101575.50;6199612;28;20046;-78
2021/08/30 06:03:29;;;;;;;11.88;6.20;;;;;;;14.78;100.00;101577.97;6164649;28;994647;-78
2021/08/30 06:06:31;;;;;;;14.38;7.13;;;;;;;14.83;100.00;101575.91;6199856;28;20460;-78
2021/08/30 06:09:34;;;;;;;10.65;6.10;;;;;;;14.83;100.00;101577.72;6200263;28;20053;-79
2021/08/30 06:12:35;;;;;;;12.43;6.90;;;;;;;14.94;100.00;101580.56;6200218;28;20434;-78
2021/08/30 06:15:37;;;;;;;12.88;6.07;;;;;;;15.00;100.00;101572.28;6199596;28;20387;-78
2021/08/30 06:18:38;;;;;;;12.02;5.95;;;;;;;14.93;100.00;101574.44;6200017;28;20534;-78
2021/08/30 06:21:40;;;;;;;13.15;6.18;;;;;;;15.00;100.00;101574.94;6201119;28;20046;-78
2021/08/30 06:24:46;;;;;;;19.65;8.27;;;;;;;15.01;100.00;101576.63;6200044;28;20490;-78
2021/08/30 06:27:48;;;;;;;13.38;6.97;;;;;;;15.07;100.00;101567.47;6200206;28;20058;-78
2021/08/30 06:30:49;;;;;;;14.38;7.03;;;;;;;14.99;100.00;101570.59;6199838;28;20437;-78
2021/08/30 06:33:50;;;;;;;13.68;7.13;;;;;;;15.00;100.00;101574.09;6199323;28;20050;-78
2021/08/30 06:36:52;;;;;;;16.30;7.05;;;;;;;15.18;100.00;101573.84;6202856;28;20421;-77
2021/08/30 06:39:54;;;;;;;12.75;6.93;;;;;;;15.11;100.00;101574.28;6204729;28;20046;-79
2021/08/30 06:42:56;;;;;;;15.77;7.13;;;;;;;15.14;100.00;101580.28;6204660;28;20422;-77
2021/08/30 06:45:57;;;;;;;11.23;5.75;;;;;;;15.13;100.00;101572.44;6204234;28;20054;-78
2021/08/30 06:48:58;;;;;;;12.90;6.47;;;;;;;15.16;100.00;101585.47;6204696;28;20050;-78
2021/08/30 06:52:00;;;;;;;15.48;6.75;;;;;;;15.16;100.00;101586.31;6203894;28;20057;-79
2021/08/30 06:55:03;;;;;;;13.38;6.65;;;;;;;15.19;100.00;101587.94;6203659;28;20054;-79
2021/08/30 06:58:05;;;;;;;11.32;6.50;;;;;;;15.28;100.00;101581.25;6203877;28;20387;-79
2021/08/30 07:01:06;;;;;;;14.10;6.50;;;;;;;15.31;100.00;101584.56;6204794;28;20053;-78
2021/08/30 07:04:07;;;;;;;10.88;6.65;;;;;;;15.37;100.00;101586.00;6203528;28;20429;-79
2021/08/30 07:07:09;;;;;;;10.50;5.93;;;;;;;15.45;100.00;101581.94;6203939;28;20054;-77
2021/08/30 07:10:12;;;;;;;11.50;5.85;;;;;;;15.40;100.00;101583.16;6203717;28;20053;-78
2021/08/30 07:13:13;;;;;;;16.48;7.53;;;;;;;15.55;100.00;101591.97;6203405;28;20054;-78
2021/08/30 07:16:14;;;;;;;10.40;5.60;;;;;;;15.49;100.00;101587.91;6203747;28;20062;-78
2021/08/30 07:19:15;;;;;;;10.27;5.78;;;;;;;15.54;100.00;101596.44;6203293;28;20057;-79
2021/08/30 07:22:17;;;;;;;11.23;5.15;;;;;;;15.62;100.00;101591.50;6203772;28;20053;-77
2021/08/30 07:25:19;;;;;;;13.18;6.45;;;;;;;15.61;100.00;101583.66;6203213;28;20065;-78
2021/08/30 07:28:21;;;;;;;11.25;5.80;;;;;;;15.58;100.00;101597.97;6203326;28;20489;-78
2021/08/30 07:31:22;;;;;;;11.15;5.88;;;;;;;15.62;100.00;101593.28;6203285;28;20057;-78
2021/08/30 07:34:24;;;;;;;11.15;5.57;;;;;;;15.62;100.00;101598.59;6202757;28;20425;-77
2021/08/30 07:37:25;;;;;;;9.10;4.75;;;;;;;15.72;100.00;101599.78;6203325;28;20046;-78
2021/08/30 07:40:28;;;;;;;13.40;5.90;;;;;;;15.87;100.00;101604.13;6203265;28;20054;-79
2021/08/30 07:43:30;;;;;;;12.43;5.75;;;;;;;15.91;100.00;101607.47;6202795;28;20422;-78
2021/08/30 07:46:31;;;;;;;17.27;7.72;;;;;;;15.90;100.00;101611.91;6202523;28;20523;-78
2021/08/30 07:49:32;;;;;;;10.63;5.68;;;;;;;15.95;100.00;101608.97;6201253;28;20057;-77
2021/08/30 07:52:33;;;;;;;9.93;5.20;;;;;;;15.98;100.00;101619.38;6201919;28;20053;-78
2021/08/30 07:55:36;;;;;;;10.13;5.55;;;;;;;16.04;100.00;101619.00;6201177;28;20051;-78
2021/08/30 07:58:38;;;;;;;12.30;5.65;;;;;;;16.06;100.00;101614.44;6201650;28;20053;-78
2021/08/30 08:01:39;;;;;;;10.73;5.43;;;;;;;16.05;100.00;101622.50;6201765;28;20047;-78
2021/08/30 08:04:40;;;;;;;9.48;5.47;;;;;;;16.04;100.00;101619.00;6201004;28;20058;-78
2021/08/30 08:07:42;;;;;;;9.02;5.03;;;;;;;16.01;100.00;101627.16;6201337;28;20046;-78
2021/08/30 08:10:44;;;;;;;8.98;4.45;;;;;;;16.04;100.00;101626.97;6201192;28;20050;-78
2021/08/30 08:13:46;;;;;;;10.48;6.15;;;;;;;15.98;100.00;101627.31;6201165;28;20308;-78
2021/08/30 08:16:47;;;;;;;9.65;4.93;;;;;;;16.02;100.00;101633.28;6201432;28;20098;-78
2021/08/30 08:19:48;;;;;;;10.57;4.13;;;;;;;16.05;100.00;101625.16;6202559;28;20050;-78
2021/08/30 08:22:50;;;;;;;8.63;4.78;;;;;;;16.24;100.00;101629.19;6201614;28;20050;-79
2021/08/30 08:25:53;;;;;;;8.48;4.90;;;;;;;16.45;100.00;101634.97;6201910;28;20057;-77
2021/08/30 08:28:54;;;;;;;7.30;4.80;;;;;;;16.45;100.00;101616.38;6202142;28;20671;-78
2021/08/30 08:31:56;;;;;;;6.53;4.15;;;;;;;16.56;100.00;101623.66;6202121;28;20509;-78
2021/08/30 08:34:57;;;;;;;8.43;4.55;;;;;;;16.65;100.00;101623.06;6201148;28;20054;-78
2021/08/30 08:37:58;;;;;;;7.28;4.47;;;;;;;16.61;100.00;101618.88;6200842;28;20284;-78
2021/08/30 08:41:01;;;;;;;8.77;4.70;;;;;;;16.76;100.00;101618.88;6201037;28;20061;-78
2021/08/30 08:44:07;;;;;;;7.25;3.55;;;;;;;16.90;100.00;101613.53;6200723;28;20054;-78
2021/08/30 08:47:09;;;;;;;9.48;4.88;;;;;;;16.98;100.00;101612.06;6200761;28;20046;-77
2021/08/30 08:50:12;;;;;;;8.80;3.63;;;;;;;16.87;100.00;101616.38;6201029;28;20054;-79
2021/08/30 08:53:14;;;;;;;7.68;4.18;;;;;;;16.97;100.00;101620.97;6201494;28;20054;-77
2021/08/30 08:56:20;;;;;;;9.63;4.03;;;;;;;16.98;100.00;101617.34;6200831;28;20072;-77
2021/08/30 08:59:21;;;;;;;6.65;4.00;;;;;;;16.84;100.00;101614.78;6200363;28;20057;-78
2021/08/30 09:02:27;;;;;;;6.65;3.65;;;;;;;16.90;100.00;101618.84;6200780;28;20058;-78
2021/08/30 09:05:33;;;;;;;4.72;3.22;;;;;;;16.99;100.00;101611.13;6200556;28;20058;-78
2021/08/30 09:08:41;;;;;;;6.18;3.72;;;;;;;17.16;100.00;101620.59;6200453;28;20046;-78
2021/08/30 09:11:47;;;;;;;6.40;3.22;;;;;;;17.28;100.00;101616.28;6200625;28;20043;-78
2021/08/30 09:14:49;;;;;;;8.10;4.28;;;;;;;17.35;100.00;101616.69;6200116;28;20061;-78
2021/08/30 09:17:51;;;;;;;5.78;3.50;;;;;;;17.51;100.00;101614.72;6201260;28;20065;-78
2021/08/30 09:20:52;;;;;;;6.80;3.20;;;;;;;17.69;100.00;101612.59;6201995;28;20046;-77
2021/08/30 09:23:54;;;;;;;5.30;3.00;;;;;;;17.67;100.00;101603.88;6201008;28;20061;-78
2021/08/30 09:26:58;;;;;;;5.78;3.40;;;;;;;17.58;100.00;101615.16;6201439;28;20510;-78
2021/08/30 09:30:02;;;;;;;6.60;3.40;;;;;;;17.64;100.00;101601.44;6202035;28;20054;-78
2021/08/30 09:33:04;;;;;;;7.25;4.03;;;;;;;17.70;100.00;101604.50;6202803;28;20046;-79
2021/08/30 09:36:05;;;;;;;5.35;3.20;;;;;;;17.71;100.00;101605.34;6200583;28;20061;-78
2021/08/30 09:39:07;;;;;;;9.13;3.70;;;;;;;17.64;100.00;101612.91;6201046;28;20057;-79
2021/08/30 09:42:12;;;;;;;5.70;3.63;;;;;;;17.63;100.00;101615.69;6201380;28;20046;-78
2021/08/30 09:45:15;;;;;;;5.50;3.17;;;;;;;17.56;100.00;101612.56;6199604;28;20498;-78
2021/08/30 09:48:27;;;;;;;6.03;3.30;;;;;;;17.41;100.00;101611.84;6197190;28;20422;-79
2021/08/30 09:51:29;;;;;;;4.85;3.30;;;;;;;17.30;100.00;101608.19;6173640;28;20057;-77
2021/08/30 09:54:30;;;;;;;5.57;3.30;;;;;;;17.31;100.00;101605.44;6183222;28;20125;-78
2021/08/30 09:57:34;;;;;;;4.97;3.22;;;;;;;17.24;100.00;101615.63;6197325;28;20050;-78
2021/08/30 10:00:36;;;;;;;5.38;3.03;;;;;;;17.43;100.00;101614.38;6187741;28;20049;-78
2021/08/30 10:03:40;;;;;;;5.43;3.03;;;;;;;17.57;100.00;101608.09;6185677;28;20058;-78
2021/08/30 10:06:41;;;;;;;9.55;3.85;;;;;;;17.73;100.00;101600.78;6193562;28;20042;-78
2021/08/30 10:09:44;;;;;;;6.80;3.38;;;;;;;17.94;99.07;101607.31;6189671;28;20050;-78
2021/08/30 10:12:48;;;;;;;8.32;2.80;;;;;;;17.95;98.53;101605.50;6189089;28;20419;-79
2021/08/30 10:15:50;;;;;;;6.65;3.20;;;;;;;17.71;100.00;101600.03;6190663;28;20073;-80
2021/08/30 10:18:53;;;;;;;5.65;3.33;;;;;;;17.81;100.00;101600.28;6177694;28;20130;-78
2021/08/30 10:21:55;;;;;;;4.15;2.70;;;;;;;17.99;95.17;101606.97;6183828;28;20096;-78
2021/08/30 10:24:56;;;;;;;5.53;3.17;;;;;;;17.88;94.82;101598.88;6177569;28;20498;-79
2021/08/30 10:28:01;;;;;;;6.68;2.55;;;;;;;18.04;93.76;101602.16;6174822;28;20050;-78
2021/08/30 10:31:14;;;;;;;4.72;2.78;;;;;;;17.83;96.56;101599.22;6175271;28;20047;-78
2021/08/30 10:34:25;;;;;;;3.88;2.70;;;;;;;17.87;92.04;101589.22;6175115;28;20048;-79
2021/08/30 10:37:28;;;;;;;5.38;2.80;;;;;;;17.81;94.94;101590.50;6174450;28;20190;-78
2021/08/30 10:40:31;;;;;;;3.83;2.70;;;;;;;17.86;96.37;101593.69;6171430;28;20055;-79
2021/08/30 10:43:42;;;;;;;3.80;2.42;;;;;;;17.98;95.28;101597.28;6190826;28;20047;-80
2021/08/30 10:46:46;;;;;;;4.10;2.30;;;;;;;17.95;94.66;101598.34;6184219;28;20043;-81
2021/08/30 10:49:50;;;;;;;5.72;3.38;;;;;;;17.99;94.60;101585.69;6188114;28;20410;-80
2021/08/30 10:53:03;;;;;;;3.55;2.55;;;;;;;18.09;93.80;101601.84;6192434;28;20051;-80
2021/08/30 10:56:09;;;;;;;3.95;3.13;;;;;;;18.09;96.67;101600.03;6183706;28;20497;-79
2021/08/30 10:59:22;;;;;;;4.10;2.35;;;;;;;18.08;99.45;101606.31;6199271;28;20046;-79
2021/08/30 11:02:35;;;;;;;5.63;2.60;;;;;;;17.97;99.82;101603.56;6199383;28;20490;-79
2021/08/30 11:05:37;;;;;;;4.18;2.35;;;;;;;17.81;100.00;101597.63;6188593;28;20515;-79
2021/08/30 11:08:43;;;;;;;3.88;2.78;;;;;;;17.73;99.91;101600.78;6193078;28;20056;-80
2021/08/30 11:11:44;;;;;;;3.47;2.65;;;;;;;17.78;97.64;101605.81;6195888;28;20047;-79
2021/08/30 11:14:56;;;;;;;4.30;2.78;;;;;;;17.81;97.24;101606.47;6189957;28;20068;-80
2021/08/30 11:18:03;;;;;;;3.70;2.58;;;;;;;17.85;97.05;101610.59;6198574;28;20437;-80
2021/08/30 11:21:05;;;;;;;7.90;3.15;;;;;;;18.02;96.57;101608.53;6190110;28;20051;-80
2021/08/30 11:24:09;;;;;;;3.97;2.53;;;;;;;18.14;96.63;101611.19;6179461;28;20415;-79
2021/08/30 11:27:14;;;;;;;4.75;2.45;;;;;;;18.24;95.79;101600.75;6194883;28;20054;-81
2021/08/30 11:30:19;;;;;;;3.25;2.42;;;;;;;18.38;92.27;101597.91;6177985;28;20062;-79
2021/08/30 11:33:22;;;;;;;6.32;2.63;;;;;;;18.37;93.08;101604.22;6177975;28;20529;-80
2021/08/30 11:36:23;;;;;;;4.45;2.85;;;;;;;18.44;95.10;101610.81;6178209;28;20051;-80
2021/08/30 11:39:26;;;;;;;3.47;2.38;;;;;;;18.64;93.24;101604.00;6178080;28;20047;-78
2021/08/30 11:42:30;;;;;;;3.53;2.53;;;;;;;18.96;88.23;101606.13;6178341;28;20402;-80
2021/08/30 11:45:32;;;;;;;4.88;2.83;;;;;;;19.11;90.90;101602.31;6177584;28;20050;-81
2021/08/30 11:48:34;;;;;;;3.13;2.22;;;;;;;19.04;89.23;101603.75;6177977;28;20062;-80
2021/08/30 11:51:39;;;;;;;4.38;2.70;;;;;;;18.84;90.24;101605.22;6198337;28;20073;-78
2021/08/30 11:54:43;;;;;;;4.32;2.35;;;;;;;18.82;87.63;101609.81;6202873;28;20054;-78
2021/08/30 11:57:46;;;;;;;4.13;2.53;;;;;;;18.65;89.03;101611.03;6203408;28;20051;-78
2021/08/30 12:00:49;;;;;;;5.88;2.92;;;;;;;18.58;91.97;101612.47;6201749;28;20050;-80
2021/08/30 12:03:50;;;;;;;4.40;2.28;;;;;;;18.65;92.80;101604.84;6202073;28;20054;-78
2021/08/30 12:06:54;;;;;;;2.85;2.50;;;;;;;18.81;92.97;101605.47;6202438;28;20055;-77
2021/08/30 12:09:56;;;;;;;2.70;2.00;;;;;;;19.23;88.15;101608.53;6202791;28;20512;-77
2021/08/30 12:13:18;;;;;;;3.72;2.50;;;;;;;19.49;87.53;101614.53;6202756;28;20053;-79
2021/08/30 12:16:23;;;;;;;5.07;2.88;;;;;;;19.52;87.41;101601.78;6202223;28;20056;-77
2021/08/30 12:19:25;;;;;;;3.70;2.78;;;;;;;19.31;85.88;101606.13;6201570;28;20494;-78
2021/08/30 12:22:30;;;;;;;5.70;2.47;;;;;;;19.14;88.88;101609.22;6182669;28;20051;-78
2021/08/30 12:25:33;;;;;;;4.65;2.58;;;;;;;18.96;87.16;101614.97;6177396;28;20070;-78
2021/08/30 12:28:34;;;;;;;3.80;2.03;;;;;;;18.86;88.65;101627.28;6177853;28;20143;-78
2021/08/30 12:31:37;;;;;;;4.13;2.67;;;;;;;18.84;88.72;101620.34;6177406;28;20053;-80
2021/08/30 12:34:41;;;;;;;3.60;2.10;;;;;;;18.85;89.03;101622.03;6176348;28;20046;-79
2021/08/30 12:37:43;;;;;;;4.07;2.28;;;;;;;19.25;86.33;101620.75;6177940;28;20490;-80
2021/08/30 12:40:48;;;;;;;5.38;2.97;;;;;;;19.46;86.12;101617.44;6177784;28;20051;-76
2021/08/30 12:43:49;;;;;;;3.13;2.00;;;;;;;19.55;85.92;101616.72;6177882;28;20054;-78
2021/08/30 12:46:52;;;;;;;4.80;2.33;;;;;;;19.43;85.04;101615.84;6177237;28;20047;-76
2021/08/30 12:49:53;;;;;;;4.60;2.22;;;;;;;19.47;86.92;101614.63;6176992;28;20051;-79
2021/08/30 12:52:55;;;;;;;3.35;2.40;;;;;;;19.79;89.01;101616.66;6176600;28;20066;-80
2021/08/30 12:55:57;;;;;;;2.65;1.83;;;;;;;19.99;83.88;101613.28;6176824;28;20054;-79
2021/08/30 12:58:58;;;;;;;3.38;2.28;;;;;;;20.19;82.56;101610.84;6176964;28;20057;-80
2021/08/30 13:02:01;;;;;;;2.30;1.83;;;;;;;20.36;78.86;101615.66;6176126;28;20047;-77
2021/08/30 13:05:02;;;;;;;3.42;1.92;;;;;;;19.98;77.24;101621.38;6175738;28;20065;-77
2021/08/30 13:08:04;;;;;;;2.63;1.92;;;;;;;19.88;77.52;101610.59;6177157;28;20055;-80
2021/08/30 13:11:05;;;;;;;2.28;1.70;;;;;;;19.67;77.73;101612.28;6177682;28;20057;-79
2021/08/30 13:14:07;;;;;;;4.05;2.33;;;;;;;19.49;84.32;101615.38;6177728;28;20043;-79
2021/08/30 13:17:09;;;;;;;3.90;1.90;;;;;;;19.84;80.22;101610.94;6177105;28;20050;-79
2021/08/30 13:20:11;;;;;;;2.92;2.00;;;;;;;19.92;79.16;101617.38;6177713;28;20051;-79
2021/08/30 13:23:13;;;;;;;3.25;2.17;;;;;;;19.85;77.78;101618.84;6177212;28;20050;-80
2021/08/30 13:26:14;;;;;;;3.95;2.35;;;;;;;19.49;81.93;101633.19;6177394;28;20047;-79
2021/08/30 13:29:16;;;;;;;3.70;2.10;;;;;;;19.23;82.77;101628.03;6176945;28;20517;-81
2021/08/30 13:32:19;;;;;;;3.15;2.22;;;;;;;19.28;83.09;101630.34;6175367;28;20050;-79
2021/08/30 13:35:21;;;;;;;4.13;2.13;;;;;;;19.11;83.49;101622.78;6173146;28;20058;-79
2021/08/30 13:38:23;;;;;;;3.80;2.30;;;;;;;19.13;79.47;101613.72;6181674;28;20462;-79
2021/08/30 13:41:24;;;;;;;4.65;2.85;;;;;;;18.94;81.22;101627.56;6187478;28;20200;-78
2021/08/30 13:44:26;;;;;;;3.35;2.30;;;;;;;18.88;82.82;101628.00;6181628;28;20058;-78
2021/08/30 13:47:28;;;;;;;3.75;2.15;;;;;;;18.74;84.48;101631.69;6175469;28;20050;-78
2021/08/30 13:50:30;;;;;;;2.53;2.03;;;;;;;18.67;86.37;101624.25;6175950;28;20058;-79
2021/08/30 13:53:31;;;;;;;2.65;2.00;;;;;;;18.47;88.12;101621.22;6180474;28;20038;-79
2021/08/30 13:56:33;;;;;;;3.47;1.92;;;;;;;18.49;88.82;101624.63;6183787;28;20047;-78
2021/08/30 13:59:34;;;;;;;3.65;2.00;;;;;;;18.42;89.83;101623.34;6156962;28;20055;-78